Time;durP1;ratioP1;P1;durP2;ratioP2;P2;SDS_P1;SDS_P2;PMS_P1;PMS_P2;Temp;Humidity;BMP_temperature;BMP_pressure;BME280_temperature;BME280_humidity;BME280_pressure;Samples;Min_cycle;Max_cycle;Signal;HPM_P1;HPM_P2
2023/03/20 00:00:50;;;;;;;2.80;2.33;;;;;;;9.27;100.00;98302.28;5074450;28;20208;-73
2023/03/20 00:03:17;;;;;;;2.20;1.90;;;;;;;9.20;100.00;98307.63;5073015;28;20232;-73
2023/03/20 00:05:44;;;;;;;1.80;1.70;;;;;;;9.25;100.00;98317.59;5072884;28;20284;-74
2023/03/20 00:08:11;;;;;;;1.90;1.80;;;;;;;9.23;100.00;98319.66;5072999;28;20216;-73
2023/03/20 00:10:43;;;;;;;1.90;1.80;;;;;;;9.23;100.00;98319.66;5073472;28;20607;-73
2023/03/20 00:13:27;;;;;;;2.07;1.87;;;;;;;9.13;100.00;98311.25;5072840;28;20240;-73
2023/03/20 00:15:53;;;;;;;1.97;1.77;;;;;;;9.14;100.00;98311.06;5073791;28;20193;-73
2023/03/20 00:18:21;;;;;;;2.50;2.30;;;;;;;9.14;100.00;98315.56;5072583;28;20201;-73
2023/03/20 00:20:50;;;;;;;2.23;2.13;;;;;;;9.12;100.00;98305.16;5073739;28;20286;-73
2023/03/20 00:23:17;;;;;;;2.77;2.10;;;;;;;9.11;100.00;98302.72;5071685;28;20227;-73
2023/03/20 00:25:45;;;;;;;2.10;2.00;;;;;;;9.12;100.00;98301.69;5073652;28;20576;-73
2023/03/20 00:28:31;;;;;;;3.43;2.10;;;;;;;9.11;100.00;98308.00;5070523;28;20225;-73
2023/03/20 00:30:58;;;;;;;2.60;2.40;;;;;;;9.07;100.00;98299.66;5059571;28;20225;-73
2023/03/20 00:33:25;;;;;;;2.80;2.60;;;;;;;9.05;100.00;98306.19;5060519;28;20233;-73
2023/03/20 00:35:52;;;;;;;2.40;2.20;;;;;;;9.05;100.00;98314.13;5072615;28;20211;-73
2023/03/20 00:38:18;;;;;;;3.97;2.40;;;;;;;9.04;100.00;98304.53;5073519;28;20236;-73
2023/03/20 00:40:45;;;;;;;3.60;2.27;;;;;;;9.07;100.00;98312.91;5072249;28;20201;-73
2023/03/20 00:43:14;;;;;;;2.53;2.33;;;;;;;9.08;100.00;98316.38;5072794;28;20294;-73
2023/03/20 00:45:42;;;;;;;2.20;2.10;;;;;;;9.03;100.00;98321.47;5071942;28;20204;-73
2023/03/20 00:48:12;;;;;;;3.23;2.60;;;;;;;9.02;100.00;98327.78;5073357;28;20240;-73
2023/03/20 00:50:39;;;;;;;3.13;2.37;;;;;;;9.01;100.00;98334.13;5054955;28;20204;-73
2023/03/20 00:53:06;;;;;;;2.73;2.53;;;;;;;9.01;100.00;98320.84;5072941;28;20569;-73
2023/03/20 00:55:32;;;;;;;2.80;2.37;;;;;;;9.02;100.00;98328.63;5072083;28;20208;-73
2023/03/20 00:58:01;;;;;;;3.33;2.73;;;;;;;9.01;100.00;98321.66;5073301;28;20200;-73
2023/03/20 01:00:38;;;;;;;2.10;2.00;;;;;;;9.01;100.00;98324.31;5072264;28;20200;-73
2023/03/20 01:03:18;;;;;;;3.10;2.40;;;;;;;8.99;100.00;98329.00;5072900;28;20704;-73
2023/03/20 01:05:46;;;;;;;2.90;2.70;;;;;;;8.99;100.00;98323.72;5070845;28;20204;-73
2023/03/20 01:08:15;;;;;;;3.00;2.80;;;;;;;9.00;100.00;98329.84;5066431;28;20703;-73
2023/03/20 01:10:44;;;;;;;2.67;2.47;;;;;;;8.98;100.00;98326.56;5061056;28;20207;-73
2023/03/20 01:13:21;;;;;;;3.23;2.57;;;;;;;8.96;100.00;98329.41;5059421;28;20235;-73
2023/03/20 01:15:49;;;;;;;3.80;2.60;;;;;;;8.99;100.00;98326.34;5053714;28;20192;-73
2023/03/20 01:18:16;;;;;;;2.60;2.40;;;;;;;9.00;100.00;98327.19;5072357;28;20204;-73
2023/03/20 01:20:44;;;;;;;2.30;2.10;;;;;;;9.02;100.00;98323.31;5072809;28;20208;-73
2023/03/20 01:23:11;;;;;;;2.37;2.00;;;;;;;9.00;100.00;98324.53;5071781;28;20256;-73
2023/03/20 01:25:38;;;;;;;2.43;2.23;;;;;;;8.94;100.00;98322.69;5071380;28;20299;-73
2023/03/20 01:28:14;;;;;;;2.10;2.00;;;;;;;8.97;100.00;98327.59;5072630;28;20700;-73
2023/03/20 01:30:40;;;;;;;1.97;1.57;;;;;;;8.92;100.00;98330.03;5054372;28;20197;-73
2023/03/20 01:33:15;;;;;;;2.00;1.90;;;;;;;8.95;100.00;98332.25;5072413;28;20232;-73
2023/03/20 01:35:42;;;;;;;1.93;1.83;;;;;;;8.96;100.00;98323.31;5071881;28;20230;-73
2023/03/20 01:38:23;;;;;;;3.47;2.00;;;;;;;8.90;100.00;98329.41;5072877;28;20209;-73
2023/03/20 01:41:17;;;;;;;2.03;1.93;;;;;;;8.89;100.00;98331.25;5071611;28;20189;-72
2023/03/20 01:43:45;;;;;;;2.27;2.00;;;;;;;8.86;100.00;98330.81;5072670;28;20225;-73
2023/03/20 01:46:11;;;;;;;2.13;2.03;;;;;;;8.89;100.00;98333.06;5075290;28;20284;-73
2023/03/20 01:48:49;;;;;;;2.00;1.80;;;;;;;8.88;100.00;98334.91;5074613;28;20224;-73
2023/03/20 01:51:21;;;;;;;2.70;1.70;;;;;;;8.89;100.00;98333.91;5076233;28;20208;-73
2023/03/20 01:53:52;;;;;;;2.03;1.90;;;;;;;8.92;100.00;98333.47;5076065;28;20724;-73
2023/03/20 01:56:20;;;;;;;2.13;2.03;;;;;;;8.93;100.00;98334.31;5075553;28;20215;-73
2023/03/20 01:58:54;;;;;;;2.50;1.80;;;;;;;8.91;100.00;98345.09;5076246;28;20228;-73
2023/03/20 02:01:20;;;;;;;1.73;1.60;;;;;;;8.91;100.00;98337.16;5073939;28;20209;-73
2023/03/20 02:03:50;;;;;;;1.20;1.10;;;;;;;8.94;100.00;98342.06;5076270;28;20252;-73
2023/03/20 02:06:17;;;;;;;1.30;1.20;;;;;;;8.97;100.00;98340.84;5075531;28;20258;-73
2023/03/20 02:08:49;;;;;;;1.77;1.00;;;;;;;8.98;100.00;98351.25;5076047;28;20224;-73
2023/03/20 02:11:21;;;;;;;2.60;1.00;;;;;;;9.00;100.00;98356.34;5074852;28;20694;-72
2023/03/20 02:13:47;;;;;;;2.50;1.00;;;;;;;9.00;100.00;98354.50;5074259;28;20224;-73
2023/03/20 02:16:16;;;;;;;1.20;1.00;;;;;;;9.02;100.00;98355.13;5059594;28;20205;-73
2023/03/20 02:18:46;;;;;;;1.00;0.90;;;;;;;9.02;100.00;98356.97;5073362;28;20284;-73
2023/03/20 02:21:30;;;;;;;1.37;1.20;;;;;;;8.98;100.00;98361.03;5074976;28;20201;-73
2023/03/20 02:24:18;;;;;;;1.20;1.00;;;;;;;8.94;100.00;98347.38;5073776;28;20231;-73
2023/03/20 02:27:09;;;;;;;1.10;1.00;;;;;;;8.94;100.00;98357.97;5076269;28;20185;-73
2023/03/20 02:30:04;;;;;;;0.80;0.80;;;;;;;8.91;100.00;98362.88;5073726;28;20316;-73
2023/03/20 02:33:01;;;;;;;1.13;0.80;;;;;;;8.86;100.00;98354.66;5058271;28;20240;-73
2023/03/20 02:35:55;;;;;;;0.87;0.70;;;;;;;8.85;100.00;98368.94;5075624;28;20205;-73
2023/03/20 02:38:31;;;;;;;1.47;0.60;;;;;;;8.88;100.00;98364.06;5074303;28;20544;-73
2023/03/20 02:41:16;;;;;;;0.60;0.60;;;;;;;8.87;100.00;98364.28;5075326;28;20210;-72
2023/03/20 02:43:57;;;;;;;0.50;0.50;;;;;;;8.90;100.00;98367.34;5075483;28;20240;-72
2023/03/20 02:46:40;;;;;;;0.50;0.50;;;;;;;8.83;100.00;98368.34;5074485;28;20193;-72
2023/03/20 02:49:22;;;;;;;0.63;0.63;;;;;;;8.83;100.00;98365.69;5055251;28;20209;-72
2023/03/20 02:51:55;;;;;;;1.13;0.60;;;;;;;8.85;100.00;98358.34;5058309;28;20193;-72
2023/03/20 02:54:31;;;;;;;0.60;0.60;;;;;;;8.80;100.00;98358.13;5075936;28;20228;-72
2023/03/20 02:56:58;;;;;;;0.50;0.50;;;;;;;8.82;100.00;98356.13;5073385;28;20200;-72
2023/03/20 02:59:43;;;;;;;1.13;0.50;;;;;;;8.79;100.00;98361.81;5073263;28;20205;-72
2023/03/20 03:02:18;;;;;;;0.60;0.60;;;;;;;8.78;100.00;98363.63;5073985;28;20223;-73
2023/03/20 03:04:52;;;;;;;0.63;0.40;;;;;;;8.79;100.00;98367.09;5073454;28;20192;-73
2023/03/20 03:07:23;;;;;;;1.07;0.50;;;;;;;8.79;100.00;98359.94;5074665;28;20632;-73
2023/03/20 03:09:55;;;;;;;0.80;0.50;;;;;;;8.79;100.00;98365.25;5073891;28;20687;-73
2023/03/20 03:12:27;;;;;;;0.47;0.47;;;;;;;8.82;100.00;98364.06;5073591;28;20220;-73
2023/03/20 03:15:08;;;;;;;0.97;0.60;;;;;;;8.70;100.00;98358.53;5074173;28;20207;-73
2023/03/20 03:17:37;;;;;;;0.60;0.60;;;;;;;8.65;100.00;98371.53;5074477;28;20189;-73
2023/03/20 03:20:09;;;;;;;0.60;0.50;;;;;;;8.67;100.00;98368.69;5073488;28;20575;-73
2023/03/20 03:22:36;;;;;;;0.63;0.63;;;;;;;8.73;100.00;98370.56;5073520;28;20785;-73
2023/03/20 03:25:03;;;;;;;0.50;0.50;;;;;;;8.71;100.00;98377.88;5073418;28;20204;-73
2023/03/20 03:27:36;;;;;;;0.50;0.50;;;;;;;8.77;100.00;98375.25;5074501;28;20240;-73
2023/03/20 03:30:07;;;;;;;0.60;0.60;;;;;;;8.76;100.00;98375.44;5073131;28;20231;-73
2023/03/20 03:32:36;;;;;;;0.40;0.40;;;;;;;8.78;100.00;98386.69;5038884;28;20247;-73
2023/03/20 03:35:06;;;;;;;0.50;0.50;;;;;;;8.80;100.00;98384.66;5072659;28;20208;-73
2023/03/20 03:37:40;;;;;;;0.60;0.60;;;;;;;8.81;100.00;98383.63;5056689;28;20215;-73
2023/03/20 03:40:07;;;;;;;0.70;0.53;;;;;;;8.84;100.00;98381.41;5073660;28;20257;-73
2023/03/20 03:42:51;;;;;;;0.87;0.50;;;;;;;8.81;100.00;98381.78;5074119;28;20322;-73
2023/03/20 03:45:31;;;;;;;0.50;0.50;;;;;;;8.80;100.00;98389.94;5056142;28;20231;-73
2023/03/20 03:48:17;;;;;;;0.80;0.50;;;;;;;8.71;100.00;98391.13;5073053;28;20200;-73
2023/03/20 03:50:48;;;;;;;0.77;0.60;;;;;;;8.68;100.00;98391.53;5054040;28;20288;-73
2023/03/20 03:53:22;;;;;;;0.50;0.50;;;;;;;8.67;100.00;98390.72;5056003;28;20235;-73
2023/03/20 03:55:55;;;;;;;0.50;0.50;;;;;;;8.68;100.00;98395.00;5073709;28;20650;-73
2023/03/20 03:58:25;;;;;;;0.60;0.60;;;;;;;8.73;100.00;98389.94;5072774;28;20200;-73
2023/03/20 04:00:54;;;;;;;1.33;0.50;;;;;;;8.71;100.00;98391.97;5071932;28;20193;-73
2023/03/20 04:03:24;;;;;;;0.47;0.33;;;;;;;8.71;100.00;98393.78;5072497;28;20251;-73
2023/03/20 04:05:54;;;;;;;0.60;0.60;;;;;;;8.71;100.00;98391.97;5074196;28;20235;-73
2023/03/20 04:08:21;;;;;;;1.53;0.47;;;;;;;8.73;100.00;98405.03;5071568;28;20580;-73
2023/03/20 04:10:47;;;;;;;0.50;0.50;;;;;;;8.76;100.00;98400.13;5073577;28;20205;-73
2023/03/20 04:13:15;;;;;;;0.57;0.50;;;;;;;8.78;100.00;98407.91;5072441;28;20220;-73
2023/03/20 04:15:42;;;;;;;0.30;0.30;;;;;;;8.80;100.00;98408.50;5073154;28;20740;-73
2023/03/20 04:18:15;;;;;;;0.60;0.60;;;;;;;8.77;100.00;98407.06;5072562;28;20208;-73
2023/03/20 04:20:41;;;;;;;0.40;0.40;;;;;;;8.77;100.00;98409.72;5053571;28;20240;-73
2023/03/20 04:23:08;;;;;;;0.97;0.50;;;;;;;8.77;100.00;98406.25;5053623;28;20225;-73
2023/03/20 04:25:34;;;;;;;0.40;0.40;;;;;;;8.77;100.00;98403.59;5072560;28;20616;-73
2023/03/20 04:28:00;;;;;;;0.47;0.47;;;;;;;8.75;100.00;98401.16;5072784;28;20575;-73
2023/03/20 04:30:27;;;;;;;0.50;0.47;;;;;;;8.72;100.00;98393.59;5072185;28;20204;-73
2023/03/20 04:32:53;;;;;;;0.40;0.40;;;;;;;8.71;100.00;98391.97;5072894;28;20709;-73
2023/03/20 04:35:20;;;;;;;0.87;0.50;;;;;;;8.68;100.00;98394.19;5071311;28;20208;-73
2023/03/20 04:37:46;;;;;;;0.50;0.50;;;;;;;8.66;100.00;98382.97;5073028;28;20357;-73
2023/03/20 04:40:13;;;;;;;0.60;0.60;;;;;;;8.56;100.00;98385.19;5071825;28;20204;-73
2023/03/20 04:42:39;;;;;;;0.73;0.50;;;;;;;8.51;100.00;98384.97;5072342;28;20224;-73
2023/03/20 04:45:06;;;;;;;1.30;0.67;;;;;;;8.47;100.00;98383.72;5071188;28;20254;-73
2023/03/20 04:47:33;;;;;;;0.57;0.57;;;;;;;8.51;100.00;98385.75;5072664;28;20257;-73
2023/03/20 04:49:59;;;;;;;1.40;0.60;;;;;;;8.48;100.00;98391.47;5071825;28;20230;-73
2023/03/20 04:52:26;;;;;;;0.50;0.50;;;;;;;8.53;100.00;98386.41;5072422;28;20224;-73
2023/03/20 04:54:52;;;;;;;0.67;0.53;;;;;;;8.57;100.00;98395.59;5071770;28;20211;-73
2023/03/20 04:57:18;;;;;;;1.67;0.50;;;;;;;8.55;100.00;98392.31;5072838;28;20200;-73
2023/03/20 04:59:45;;;;;;;0.50;0.50;;;;;;;8.54;100.00;98403.09;5071878;28;20197;-73
2023/03/20 05:02:13;;;;;;;0.60;0.60;;;;;;;8.54;100.00;98400.44;5072770;28;20224;-73
2023/03/20 05:04:41;;;;;;;0.50;0.50;;;;;;;8.56;100.00;98403.72;5070508;28;20678;-74
2023/03/20 05:07:08;;;;;;;0.50;0.50;;;;;;;8.60;100.00;98407.63;5072632;28;20211;-73
2023/03/20 05:09:34;;;;;;;1.83;0.70;;;;;;;8.62;100.00;98410.88;5071601;28;20290;-73
2023/03/20 05:12:00;;;;;;;0.60;0.60;;;;;;;8.65;100.00;98410.50;5072694;28;20243;-74
2023/03/20 05:14:27;;;;;;;2.17;0.57;;;;;;;8.65;100.00;98410.50;5070984;28;20249;-74
2023/03/20 05:16:53;;;;;;;0.60;0.50;;;;;;;8.63;100.00;98425.75;5072742;28;20227;-74
2023/03/20 05:19:19;;;;;;;0.60;0.60;;;;;;;8.59;100.00;98422.69;5072394;28;20291;-74
2023/03/20 05:21:46;;;;;;;2.00;0.50;;;;;;;8.66;100.00;98433.31;5076577;28;20612;-74
2023/03/20 05:24:12;;;;;;;0.33;0.33;;;;;;;8.65;100.00;98431.69;5074103;28;20576;-74
2023/03/20 05:26:38;;;;;;;0.57;0.50;;;;;;;8.66;100.00;98428.84;5063918;28;20555;-73
2023/03/20 05:29:05;;;;;;;0.80;0.53;;;;;;;8.63;100.00;98429.25;5064082;28;20230;-74
2023/03/20 05:31:31;;;;;;;0.40;0.40;;;;;;;8.65;100.00;98437.00;5075305;28;20205;-73
2023/03/20 05:33:57;;;;;;;0.50;0.50;;;;;;;8.62;100.00;98427.59;5073999;28;20320;-74
2023/03/20 05:36:24;;;;;;;0.60;0.60;;;;;;;8.64;100.00;98427.41;5072474;28;20200;-73
2023/03/20 05:38:50;;;;;;;0.40;0.40;;;;;;;8.65;100.00;98421.09;5073638;28;20200;-74
2023/03/20 05:41:17;;;;;;;0.50;0.50;;;;;;;8.63;100.00;98418.63;5075484;28;20204;-74
2023/03/20 05:43:43;;;;;;;0.73;0.73;;;;;;;8.55;100.00;98421.44;5073339;28;20216;-73
2023/03/20 05:46:09;;;;;;;0.60;0.60;;;;;;;8.62;100.00;98424.97;5075041;28;20299;-73
2023/03/20 05:48:36;;;;;;;2.03;0.70;;;;;;;8.56;100.00;98420.44;5074649;28;20205;-73
2023/03/20 05:51:02;;;;;;;2.10;0.60;;;;;;;8.61;100.00;98425.97;5076314;28;20316;-74
2023/03/20 05:53:29;;;;;;;1.00;0.70;;;;;;;8.58;100.00;98426.38;5071045;28;20224;-74
2023/03/20 05:55:55;;;;;;;0.70;0.60;;;;;;;8.57;100.00;98430.03;5075431;28;20254;-74
2023/03/20 05:58:22;;;;;;;0.70;0.70;;;;;;;8.64;100.00;98430.88;5074247;28;20205;-74
2023/03/20 06:00:48;;;;;;;0.60;0.60;;;;;;;8.59;100.00;98435.94;5075600;28;20219;-74
2023/03/20 06:03:14;;;;;;;1.60;0.70;;;;;;;8.62;100.00;98442.69;5074087;28;20225;-74
2023/03/20 06:05:41;;;;;;;1.07;0.70;;;;;;;8.61;100.00;98457.78;5073238;28;20208;-73
2023/03/20 06:08:08;;;;;;;0.90;0.60;;;;;;;8.65;100.00;98450.25;5074732;28;20207;-73
2023/03/20 06:10:34;;;;;;;1.23;0.90;;;;;;;8.69;100.00;98448.84;5074255;28;20315;-73
2023/03/20 06:13:00;;;;;;;1.63;0.70;;;;;;;8.70;100.00;98442.53;5073732;28;20221;-73
2023/03/20 06:15:30;;;;;;;0.60;0.60;;;;;;;8.72;100.00;98448.44;5072868;28;20567;-74
2023/03/20 06:17:57;;;;;;;0.60;0.60;;;;;;;8.77;100.00;98448.66;5074175;28;20212;-74
2023/03/20 06:20:24;;;;;;;0.90;0.90;;;;;;;8.83;100.00;98450.53;5074802;28;20253;-74
2023/03/20 06:22:50;;;;;;;1.43;0.80;;;;;;;8.82;100.00;98452.34;5074001;28;20235;-74
2023/03/20 06:25:17;;;;;;;1.73;0.87;;;;;;;8.84;100.00;98454.81;5073885;28;20635;-74
2023/03/20 06:27:43;;;;;;;0.80;0.80;;;;;;;8.93;100.00;98458.94;5074773;28;20201;-74
2023/03/20 06:30:11;;;;;;;0.97;0.87;;;;;;;8.99;100.00;98450.16;5072494;28;20225;-74
2023/03/20 06:32:37;;;;;;;1.27;0.70;;;;;;;9.08;100.00;98447.16;5072994;28;20291;-74
2023/03/20 06:35:05;;;;;;;1.53;0.80;;;;;;;9.07;100.00;98448.16;5072909;28;20207;-75
2023/03/20 06:37:32;;;;;;;0.90;0.80;;;;;;;9.12;100.00;98455.50;5073997;28;20208;-74
2023/03/20 06:39:58;;;;;;;1.10;0.90;;;;;;;9.19;100.00;98441.25;5071242;28;20271;-74
2023/03/20 06:42:25;;;;;;;3.83;1.00;;;;;;;9.26;100.00;98436.78;5067132;28;20226;-74
2023/03/20 06:44:51;;;;;;;0.70;0.70;;;;;;;9.34;100.00;98439.25;5056414;28;20247;-74
2023/03/20 06:47:17;;;;;;;1.23;0.80;;;;;;;9.32;100.00;98435.19;5074341;28;20205;-74
2023/03/20 06:49:44;;;;;;;2.37;1.70;;;;;;;9.38;100.00;98445.78;5073700;28;20221;-75
2023/03/20 06:52:17;;;;;;;1.80;1.37;;;;;;;9.48;100.00;98445.38;5074650;28;20224;-74
2023/03/20 06:54:44;;;;;;;3.20;1.37;;;;;;;9.54;100.00;98440.09;5073719;28;20205;-74
2023/03/20 06:57:11;;;;;;;2.43;1.10;;;;;;;9.55;100.00;98441.72;5074312;28;20204;-74
2023/03/20 06:59:38;;;;;;;1.00;1.00;;;;;;;9.69;100.00;98448.66;5073090;28;20644;-75
2023/03/20 07:02:06;;;;;;;1.50;1.23;;;;;;;9.99;100.00;98443.75;5068640;28;20273;-74
2023/03/20 07:04:32;;;;;;;2.00;0.80;;;;;;;10.01;100.00;98447.84;5066306;28;20201;-74
2023/03/20 07:06:59;;;;;;;1.17;1.07;;;;;;;10.03;100.00;98455.59;5073845;28;20254;-75
2023/03/20 07:09:25;;;;;;;1.83;1.00;;;;;;;10.07;100.00;98456.88;5073805;28;20216;-75
2023/03/20 07:11:52;;;;;;;1.20;1.10;;;;;;;10.47;100.00;98461.94;5073909;28;20291;-75
2023/03/20 07:14:19;;;;;;;1.40;1.10;;;;;;;10.36;100.00;98472.38;5073159;28;20292;-75
2023/03/20 07:16:45;;;;;;;1.93;1.07;;;;;;;10.25;100.00;98470.34;5071959;28;20300;-75
2023/03/20 07:19:12;;;;;;;2.13;1.17;;;;;;;10.40;100.00;98476.22;5072590;28;20273;-75
2023/03/20 07:21:39;;;;;;;1.40;1.23;;;;;;;10.18;100.00;98469.53;5072288;28;20216;-75
2023/03/20 07:24:07;;;;;;;1.60;1.13;;;;;;;10.35;100.00;98486.66;5072533;28;20558;-75
2023/03/20 07:26:33;;;;;;;1.50;0.90;;;;;;;10.16;100.00;98491.00;5071960;28;20282;-75
2023/03/20 07:29:00;;;;;;;1.40;1.30;;;;;;;10.08;100.00;98491.19;5072367;28;20211;-75
2023/03/20 07:31:29;;;;;;;1.27;1.10;;;;;;;10.02;100.00;98491.16;5072227;28;20301;-74
2023/03/20 07:33:56;;;;;;;1.00;1.00;;;;;;;9.95;100.00;98493.81;5073423;28;20328;-75
2023/03/20 07:36:22;;;;;;;1.90;1.23;;;;;;;9.95;100.00;98490.34;5071080;28;20201;-75
2023/03/20 07:38:49;;;;;;;1.23;1.13;;;;;;;9.93;100.00;98492.41;5072595;28;20204;-75
2023/03/20 07:41:15;;;;;;;1.03;1.03;;;;;;;10.14;100.00;98485.06;5072239;28;20209;-74
2023/03/20 07:43:42;;;;;;;2.13;1.17;;;;;;;10.23;100.00;98488.34;5073453;28;20229;-75
2023/03/20 07:46:09;;;;;;;1.47;1.17;;;;;;;10.32;100.00;98484.44;5071553;28;20230;-75
2023/03/20 07:48:35;;;;;;;1.30;1.20;;;;;;;10.41;100.00;98485.84;5071431;28;20208;-75
2023/03/20 07:51:02;;;;;;;1.00;1.00;;;;;;;10.33;100.00;98494.84;5068987;28;20243;-75
2023/03/20 07:53:29;;;;;;;1.23;1.13;;;;;;;10.31;100.00;98493.41;5072682;28;20221;-75
2023/03/20 07:55:55;;;;;;;2.33;1.90;;;;;;;10.17;100.00;98489.13;5072190;28;20213;-74
2023/03/20 07:58:21;;;;;;;1.40;1.30;;;;;;;10.29;100.00;98484.84;5069510;28;20234;-75
2023/03/20 08:00:48;;;;;;;2.30;1.10;;;;;;;10.50;100.00;98482.75;5072241;28;20202;-74
2023/03/20 08:03:14;;;;;;;0.97;0.97;;;;;;;10.67;100.00;98481.28;5072163;28;20223;-75
2023/03/20 08:05:41;;;;;;;1.33;0.90;;;;;;;10.97;100.00;98486.91;5072991;28;20380;-75
2023/03/20 08:08:07;;;;;;;1.30;1.00;;;;;;;10.98;100.00;98488.53;5072579;28;20211;-75
2023/03/20 08:10:33;;;;;;;3.80;1.37;;;;;;;11.15;100.00;98497.69;5073055;28;20227;-76
2023/03/20 08:13:00;;;;;;;1.30;1.10;;;;;;;11.07;100.00;98498.75;5073038;28;20227;-76
2023/03/20 08:15:26;;;;;;;0.70;0.70;;;;;;;10.98;100.00;98495.72;5072984;28;20207;-75
2023/03/20 08:17:52;;;;;;;0.80;0.80;;;;;;;10.93;100.00;98489.19;5072676;28;20216;-75
2023/03/20 08:20:20;;;;;;;1.50;0.90;;;;;;;10.93;100.00;98499.81;5072721;28;20198;-76
2023/03/20 08:22:48;;;;;;;3.77;1.00;;;;;;;10.83;100.00;98507.44;5072897;28;20258;-75
2023/03/20 08:25:15;;;;;;;1.10;1.00;;;;;;;10.68;100.00;98500.72;5072500;28;20321;-75
2023/03/20 08:27:41;;;;;;;0.80;0.80;;;;;;;10.64;100.00;98500.31;5073241;28;20217;-75
2023/03/20 08:30:09;;;;;;;0.70;0.70;;;;;;;10.71;100.00;98506.44;5073700;28;20227;-75
2023/03/20 08:32:36;;;;;;;0.90;0.80;;;;;;;10.88;100.00;98509.44;5072358;28;20721;-75
2023/03/20 08:35:03;;;;;;;1.93;1.00;;;;;;;10.90;100.00;98507.38;5072449;28;20222;-75
2023/03/20 08:37:29;;;;;;;2.97;1.10;;;;;;;11.03;100.00;98502.03;5072553;28;20214;-75
2023/03/20 08:39:55;;;;;;;1.03;0.90;;;;;;;11.07;100.00;98497.13;5072587;28;20210;-75
2023/03/20 08:42:22;;;;;;;1.83;0.97;;;;;;;11.18;100.00;98499.09;5072241;28;20230;-75
2023/03/20 08:44:48;;;;;;;0.93;0.80;;;;;;;11.07;100.00;98500.56;5072519;28;20209;-75
2023/03/20 08:47:15;;;;;;;0.90;0.90;;;;;;;11.18;100.00;98493.78;5073242;28;20211;-75
2023/03/20 08:49:42;;;;;;;0.90;0.83;;;;;;;11.42;100.00;98501.84;5072286;28;20667;-75
2023/03/20 08:52:08;;;;;;;2.37;1.70;;;;;;;11.65;100.00;98491.50;5073361;28;20285;-75
2023/03/20 08:54:34;;;;;;;1.83;1.00;;;;;;;11.59;100.00;98495.00;5074047;28;20215;-75
2023/03/20 08:57:01;;;;;;;1.00;0.80;;;;;;;11.56;100.00;98487.44;5076352;28;20732;-75
2023/03/20 08:59:27;;;;;;;1.23;1.13;;;;;;;11.63;100.00;98495.41;5076534;28;20207;-75
2023/03/20 09:01:54;;;;;;;2.67;1.10;;;;;;;11.57;100.00;98497.03;5076863;28;20544;-75
2023/03/20 09:04:20;;;;;;;1.33;1.20;;;;;;;12.13;99.85;98489.09;5076933;28;20207;-75
2023/03/20 09:06:47;;;;;;;2.27;0.80;;;;;;;12.43;98.57;98490.84;5076338;28;20279;-75
2023/03/20 09:09:14;;;;;;;1.10;1.00;;;;;;;11.93;96.20;98488.44;5076251;28;20214;-75
2023/03/20 09:11:41;;;;;;;1.03;0.90;;;;;;;11.99;97.14;98501.72;5076211;28;20204;-75
2023/03/20 09:14:07;;;;;;;0.90;0.90;;;;;;;12.23;97.60;98500.88;5076057;28;20208;-75
2023/03/20 09:16:33;;;;;;;0.90;0.90;;;;;;;12.18;99.75;98495.41;5076586;28;20212;-75
2023/03/20 09:19:00;;;;;;;0.80;0.70;;;;;;;12.01;96.40;98502.31;5076158;28;20211;-75
2023/03/20 09:21:26;;;;;;;1.00;0.93;;;;;;;11.97;95.62;98501.09;5076824;28;20208;-75
2023/03/20 09:23:52;;;;;;;2.03;1.10;;;;;;;12.41;98.13;98492.94;5075858;28;20243;-75
2023/03/20 09:26:19;;;;;;;1.13;0.90;;;;;;;12.40;100.00;98499.31;5075847;28;20663;-75
2023/03/20 09:28:45;;;;;;;0.60;0.60;;;;;;;12.69;93.48;98490.59;5076334;28;20299;-75
2023/03/20 09:31:12;;;;;;;0.80;0.80;;;;;;;12.43;94.59;98493.53;5076025;28;20773;-76
2023/03/20 09:33:38;;;;;;;0.70;0.70;;;;;;;12.47;94.74;98491.22;5075960;28;20684;-75
2023/03/20 09:36:05;;;;;;;1.10;1.00;;;;;;;12.58;92.43;98494.00;5076302;28;20249;-75
2023/03/20 09:38:31;;;;;;;0.77;0.70;;;;;;;12.46;93.00;98497.59;5076203;28;20204;-75
2023/03/20 09:41:03;;;;;;;0.90;0.80;;;;;;;12.66;92.69;98498.22;5076266;28;20207;-75
2023/03/20 09:44:05;;;;;;;1.30;0.90;;;;;;;12.50;93.61;98504.94;5075860;28;20319;-75
2023/03/20 09:46:39;;;;;;;1.07;0.80;;;;;;;12.42;90.96;98496.41;4994346;28;20207;-75
2023/03/20 09:49:29;;;;;;;1.00;0.87;;;;;;;12.42;95.04;98501.72;5063475;28;20215;-75
2023/03/20 09:52:01;;;;;;;1.13;1.03;;;;;;;12.47;91.80;98502.72;5075654;28;20209;-75
2023/03/20 09:54:43;;;;;;;1.03;0.80;;;;;;;12.59;95.84;98497.47;5075846;28;20189;-75
2023/03/20 09:57:32;;;;;;;1.63;0.80;;;;;;;13.01;91.74;98496.59;5075742;28;20193;-75
2023/03/20 10:00:02;;;;;;;1.43;0.80;;;;;;;13.09;88.04;98499.81;5075297;28;20204;-75
2023/03/20 10:02:44;;;;;;;0.80;0.80;;;;;;;12.86;86.95;98507.66;5057561;28;20228;-75
2023/03/20 10:05:38;;;;;;;2.50;0.90;;;;;;;12.77;86.17;98508.97;5041468;28;20189;-75
2023/03/20 10:08:07;;;;;;;1.37;0.80;;;;;;;12.81;86.87;98498.66;5075420;28;20196;-75
2023/03/20 10:10:51;;;;;;;2.80;0.90;;;;;;;12.87;90.15;98503.94;5075789;28;20583;-75
2023/03/20 10:13:48;;;;;;;0.93;0.93;;;;;;;12.41;92.42;98498.25;5057544;28;20231;-75
2023/03/20 10:16:33;;;;;;;1.57;0.83;;;;;;;12.15;90.64;98503.81;5075111;28;20188;-75
2023/03/20 10:19:28;;;;;;;1.27;0.80;;;;;;;12.44;90.92;98505.81;5075111;28;20269;-75
2023/03/20 10:22:02;;;;;;;1.47;0.90;;;;;;;12.07;86.73;98512.09;5075139;28;20201;-75
2023/03/20 10:24:40;;;;;;;1.33;0.80;;;;;;;11.99;88.13;98508.88;5075593;28;20185;-75
2023/03/20 10:27:21;;;;;;;2.03;0.80;;;;;;;11.81;87.71;98516.81;5074926;28;20235;-75
2023/03/20 10:29:58;;;;;;;1.27;1.00;;;;;;;11.85;91.82;98516.13;5041570;28;20701;-75
2023/03/20 10:32:38;;;;;;;2.70;0.90;;;;;;;11.81;90.21;98514.97;5074664;28;20236;-75
2023/03/20 10:35:33;;;;;;;1.30;0.90;;;;;;;11.86;90.59;98520.47;5074589;28;20671;-75
2023/03/20 10:38:25;;;;;;;1.73;1.63;;;;;;;12.11;92.59;98523.94;5074981;28;20196;-75
2023/03/20 10:40:54;;;;;;;2.03;1.70;;;;;;;12.14;92.42;98520.03;5074731;28;20204;-74
2023/03/20 10:43:23;;;;;;;1.70;1.53;;;;;;;11.80;95.31;98515.19;5074813;28;20236;-74
2023/03/20 10:45:58;;;;;;;4.33;1.77;;;;;;;11.59;97.58;98512.81;5075701;28;20214;-74
2023/03/20 10:48:31;;;;;;;2.63;1.50;;;;;;;11.69;94.24;98513.19;5041186;28;20201;-75
2023/03/20 10:51:02;;;;;;;2.83;2.00;;;;;;;11.70;95.90;98507.66;5074401;28;20223;-74
2023/03/20 10:53:59;;;;;;;2.00;1.80;;;;;;;11.60;100.00;98498.50;5074225;28;20225;-74
2023/03/20 10:56:38;;;;;;;2.40;2.03;;;;;;;12.04;91.42;98504.53;5074843;28;20195;-75
2023/03/20 10:59:12;;;;;;;2.03;1.90;;;;;;;11.94;95.43;98495.41;5074327;28;20503;-74
2023/03/20 11:01:38;;;;;;;2.60;2.40;;;;;;;12.29;93.04;98486.69;5075262;28;20187;-74
2023/03/20 11:04:06;;;;;;;4.13;3.10;;;;;;;11.93;92.38;98499.91;5074309;28;20228;-74
2023/03/20 11:06:39;;;;;;;4.03;3.60;;;;;;;12.27;92.21;98507.41;5073816;28;20208;-74
2023/03/20 11:09:16;;;;;;;5.00;3.60;;;;;;;12.09;93.34;98501.22;5074797;28;20278;-74
2023/03/20 11:11:46;;;;;;;3.63;3.33;;;;;;;12.44;94.82;98497.00;5073794;28;20254;-74
2023/03/20 11:14:21;;;;;;;4.00;3.60;;;;;;;12.57;98.21;98489.69;5074092;28;20214;-74
2023/03/20 11:16:53;;;;;;;4.37;3.87;;;;;;;12.73;91.79;98501.63;5073447;28;20208;-74
2023/03/20 11:19:21;;;;;;;5.00;4.10;;;;;;;12.31;94.79;98495.28;5074278;28;20205;-74
2023/03/20 11:21:52;;;;;;;4.40;4.00;;;;;;;12.66;91.06;98504.34;5073874;28;20200;-75
2023/03/20 11:24:52;;;;;;;4.87;3.73;;;;;;;12.36;94.64;98502.63;5073567;28;20223;-74
2023/03/20 11:27:25;;;;;;;4.77;4.37;;;;;;;12.19;100.00;98504.19;5069855;28;20208;-74
2023/03/20 11:29:52;;;;;;;4.60;4.10;;;;;;;12.61;96.24;98512.22;5073893;28;20279;-74
2023/03/20 11:32:41;;;;;;;5.07;4.10;;;;;;;12.66;91.85;98509.69;5073465;28;20236;-74
2023/03/20 11:35:29;;;;;;;4.10;3.70;;;;;;;12.56;91.87;98500.56;5073818;28;20224;-74
2023/03/20 11:38:09;;;;;;;5.27;3.60;;;;;;;12.87;90.64;98500.44;5073410;28;20193;-74
2023/03/20 11:40:36;;;;;;;4.47;4.07;;;;;;;13.13;88.64;98498.34;5073527;28;20185;-74
2023/03/20 11:43:06;;;;;;;6.13;4.80;;;;;;;12.78;93.96;98499.09;5073990;28;20229;-74
2023/03/20 11:45:38;;;;;;;4.70;4.30;;;;;;;12.79;89.30;98496.22;5074099;28;20201;-74
2023/03/20 11:48:06;;;;;;;5.20;4.70;;;;;;;12.77;88.15;98498.31;5073317;28;20208;-74